Houston, Texas
Current Conditions -  °F | °C
As of 6:35 AM on Saturday 01 Nov 2014 (Local Time) from KMCJ Reporting Station
Clear Clear  
Wind Chill: 52°   Ceiling: Unl
Heat Index: 52°   Visibility: 10mi
Dew Point: 41°   Wind: 13mph
Humidity: 67%   Direction: 30°NNE
Pressure: 30.32"   Gusts: 21mph
Location:  29.76°N, 95.37°W
Report Text: KMCJ 011135Z AUTO 03011G18KT 10SM CLR 11/05 A3032 RMK AO1
Loading
Personal Weather Stations






























Interactive Weather Map
Tropical Storm Tracking
New forecast layout! Learn more

10-Day Weather Forecast

Advertisements
Track Severe Weather on mobile